Weather History for Princeton, MN

Change the Weather History Date:

Friday, August 23, 2013

  Actual Average Record
Temperature  
Mean Temperature 68 °F -  
Max Temperature 87 °F 76 °F 87 °F (2013)
Min Temperature 48 °F 55 °F 33 °F (2004)
Cooling Degree Days 2    
Growing Degree Days 18 (Base 50)    
Moisture  
Dew Point 54 °F    
Average Humidity 62    
Maximum Humidity 94    
Minimum Humidity 33    
Precipitation  
Precipitation 0.00 in - - ()
Sea Level Pressure  
Sea Level Pressure 30.11 in    
Wind  
Wind Speed 4 mph (ESE)    
Max Wind Speed 12 mph    
Max Gust Speed 16 mph    
Visibility 10 miles    
Events      
Averages and records for this station are not official NWS values.
T = Trace of Precipitation, MM = Missing Value Source: NWS Daily Summary

Daily Weather History Graph

Daily Weather History Graph

Search for Another Location

Airport:

Trip Planner

Search our weather history database for the weather conditions in past years. The results will help you decide how hot, cold, wet, or windy it might be!

Date:

Astronomy

Aug. 23, 2013 Rise Set
Actual Time 6:25 AM CDT 8:07 PM CDT
Civil Twilight 5:53 AM CDT 8:39 PM CDT
Nautical Twilight 5:15 AM CDT 9:17 PM CDT
Astronomical Twilight 4:33 AM CDT 9:58 PM CDT
Moon 9:13 PM CDT (8/23) 9:33 AM CDT (8/23)
Length of Visible Light 14h 45m
Length of Day
13h 42m
Waning Gibbous, 91% of the Moon is Illuminated
Aug 23
Waning Gibbous
Aug 28
Last Quarter
Sep 5
New
Sep 12
First Quarter
Sep 19
Full

Hourly Weather History & Observations

Time (CDT) Temp. Heat Index Dew Point Humidity Pressure Visibility Wind Dir Wind Speed Gust Speed Precip Events Conditions
12:01 AM 57.2 °F - 48.2 °F 72% 30.15 in 10.0 mi North 1.2 mph - N/A   Clear
12:21 AM 55.4 °F - 48.2 °F 77% 30.15 in 10.0 mi NNE 2.3 mph - N/A   Clear
12:41 AM 57.2 °F - 48.2 °F 72% 30.15 in 10.0 mi North 1.2 mph - N/A   Clear
1:01 AM 55.4 °F - 48.2 °F 77% 30.15 in 10.0 mi NNE 2.3 mph - N/A   Clear
1:21 AM 55.4 °F - 48.2 °F 77% 30.15 in 10.0 mi Calm Calm - N/A   Clear
1:41 AM 53.6 °F - 48.2 °F 82% 30.15 in 10.0 mi Calm Calm - N/A   Clear
2:01 AM 53.6 °F - 48.2 °F 82% 30.14 in 10.0 mi NE 2.3 mph - N/A   Clear
2:21 AM 53.6 °F - 48.2 °F 82% 30.14 in 10.0 mi NE 1.2 mph - N/A   Clear
2:41 AM 53.6 °F - 48.2 °F 82% 30.14 in 10.0 mi Calm Calm - N/A   Clear
3:01 AM 51.8 °F - 48.2 °F 88% 30.15 in 10.0 mi Calm Calm - N/A   Clear
3:21 AM 51.8 °F - 48.2 °F 88% 30.15 in 10.0 mi Calm Calm - N/A   Clear
3:41 AM 50.0 °F - 46.4 °F 87% 30.15 in 10.0 mi Calm Calm - N/A   Clear
4:01 AM 50.0 °F - 48.2 °F 94% 30.15 in 10.0 mi North 2.3 mph - N/A   Clear
4:21 AM 50.0 °F - 46.4 °F 87% 30.15 in 7.0 mi North 1.2 mph - N/A   Clear
4:41 AM 50.0 °F - 46.4 °F 87% 30.15 in 10.0 mi Calm Calm - N/A   Clear
5:01 AM 48.2 °F - 46.4 °F 93% 30.15 in 10.0 mi North 1.2 mph - N/A   Clear
5:21 AM 50.0 °F - 48.2 °F 94% 30.15 in 10.0 mi North 1.2 mph - N/A   Clear
5:41 AM 50.0 °F - 48.2 °F 94% 30.15 in 10.0 mi NNE 1.2 mph - N/A   Clear
6:01 AM 48.2 °F - 46.4 °F 93% 30.16 in 10.0 mi North 1.2 mph - N/A   Clear
6:21 AM 51.8 °F - 48.2 °F 88% 30.16 in 10.0 mi North 2.3 mph - N/A   Clear
6:41 AM 50.0 °F - 46.4 °F 87% 30.16 in 10.0 mi Calm Calm - N/A   Clear
7:01 AM 50.0 °F - 48.2 °F 94% 30.16 in 10.0 mi Calm Calm - N/A   Clear
7:21 AM 53.6 °F - 50.0 °F 88% 30.17 in 10.0 mi Calm Calm - N/A   Clear
7:41 AM 57.2 °F - 51.8 °F 82% 30.17 in 10.0 mi Calm Calm - N/A   Clear
8:01 AM 60.8 °F - 51.8 °F 72% 30.16 in 10.0 mi ENE 3.5 mph - N/A   Clear
8:21 AM 62.6 °F - 50.0 °F 63% 30.16 in 10.0 mi East 3.5 mph - N/A   Clear
8:41 AM 64.4 °F - 50.0 °F 59% 30.16 in 10.0 mi East 4.6 mph - N/A   Clear
9:01 AM 66.2 °F - 51.8 °F 60% 30.16 in 10.0 mi ESE 4.6 mph - N/A   Clear
9:21 AM 69.8 °F - 51.8 °F 53% 30.16 in 10.0 mi East 5.8 mph - N/A   Clear
9:41 AM 69.8 °F - 51.8 °F 53% 30.16 in 10.0 mi East 4.6 mph - N/A   Clear
10:01 AM 73.4 °F - 51.8 °F 47% 30.16 in 10.0 mi ESE 6.9 mph - N/A   Clear
10:21 AM 73.4 °F - 51.8 °F 47% 30.15 in 10.0 mi ESE 10.4 mph - N/A   Clear
10:41 AM 75.2 °F - 51.8 °F 44% 30.14 in 10.0 mi SE 8.1 mph - N/A   Clear
11:01 AM 77.0 °F - 53.6 °F 44% 30.14 in 10.0 mi ESE 5.8 mph - N/A   Clear
11:21 AM 78.8 °F - 53.6 °F 42% 30.13 in 10.0 mi East 8.1 mph - N/A   Clear
11:41 AM 80.6 °F 80.3 °F 53.6 °F 39% 30.13 in 10.0 mi East 8.1 mph - N/A   Clear
12:01 PM 80.6 °F - 51.8 °F 37% 30.12 in 10.0 mi SE 5.8 mph - N/A   Clear
12:21 PM 82.4 °F - 51.8 °F 35% 30.12 in 10.0 mi SE 9.2 mph - N/A   Clear
12:41 PM 82.4 °F 81.4 °F 53.6 °F 37% 30.12 in 10.0 mi ESE 5.8 mph - N/A   Clear
1:01 PM 84.2 °F 82.8 °F 53.6 °F 35% 30.11 in 10.0 mi East 5.8 mph - N/A   Clear
1:21 PM 84.2 °F 82.8 °F 53.6 °F 35% 30.11 in 10.0 mi SE 8.1 mph - N/A   Clear
1:41 PM 84.2 °F 82.8 °F 53.6 °F 35% 30.10 in 10.0 mi SE 5.8 mph - N/A   Clear
2:01 PM 84.2 °F 82.8 °F 53.6 °F 35% 30.09 in 10.0 mi South 8.1 mph - N/A   Clear
2:21 PM 84.2 °F 82.8 °F 53.6 °F 35% 30.09 in 10.0 mi ESE 6.9 mph - N/A   Clear
2:41 PM 84.2 °F 82.8 °F 53.6 °F 35% 30.08 in 10.0 mi ESE 4.6 mph - N/A   Clear
3:01 PM 86.0 °F 84.5 °F 55.4 °F 35% 30.08 in 10.0 mi ESE 5.8 mph - N/A   Clear
3:21 PM 87.8 °F 86.1 °F 55.4 °F 33% 30.07 in 10.0 mi SE 10.4 mph - N/A   Clear
3:41 PM 86.0 °F 84.5 °F 55.4 °F 35% 30.06 in 10.0 mi South 10.4 mph - N/A   Clear
4:01 PM 87.8 °F 86.1 °F 55.4 °F 33% 30.06 in 10.0 mi SE 6.9 mph - N/A   Clear
4:21 PM 87.8 °F 86.1 °F 55.4 °F 33% 30.06 in 10.0 mi SSE 9.2 mph - N/A   Clear
4:41 PM 87.8 °F 86.1 °F 55.4 °F 33% 30.05 in 10.0 mi SSE 10.4 mph - N/A   Clear
5:01 PM 87.8 °F 86.1 °F 55.4 °F 33% 30.05 in 10.0 mi SSE 11.5 mph 16.1 mph N/A   Clear
5:21 PM 86.0 °F 84.9 °F 57.2 °F 37% 30.05 in 10.0 mi SE 9.2 mph - N/A   Clear
5:41 PM 84.2 °F 83.8 °F 59.0 °F 42% 30.05 in 10.0 mi SSE 9.2 mph - N/A   Clear
6:01 PM 84.2 °F 83.8 °F 59.0 °F 42% 30.05 in 10.0 mi South 9.2 mph - N/A   Clear
6:21 PM 82.4 °F 82.9 °F 60.8 °F 48% 30.05 in 10.0 mi South 10.4 mph - N/A   Clear
6:41 PM 82.4 °F 82.9 °F 60.8 °F 48% 30.04 in 10.0 mi SSE 10.4 mph - N/A   Clear
7:01 PM 82.4 °F 82.9 °F 60.8 °F 48% 30.03 in 10.0 mi South 9.2 mph - N/A   Clear
7:21 PM 80.6 °F 81.8 °F 62.6 °F 54% 30.03 in 10.0 mi South 9.2 mph - N/A   Clear
7:41 PM 78.8 °F - 62.6 °F 57% 30.04 in 10.0 mi South 5.8 mph - N/A   Clear
8:01 PM 78.8 °F - 62.6 °F 57% 30.03 in 10.0 mi South 5.8 mph - N/A   Clear
8:21 PM 77.0 °F - 64.4 °F 65% 30.04 in 10.0 mi SSE 5.8 mph - N/A   Clear
8:41 PM 75.2 °F - 64.4 °F 69% 30.04 in 10.0 mi South 5.8 mph - N/A   Clear
9:01 PM 75.2 °F - 64.4 °F 69% 30.05 in 10.0 mi SSE 6.9 mph - N/A   Clear
9:21 PM 75.2 °F - 64.4 °F 69% 30.05 in 10.0 mi SSE 5.8 mph - N/A   Clear
9:41 PM 73.4 °F - 64.4 °F 73% 30.05 in 10.0 mi South 5.8 mph - N/A   Clear
10:01 PM 73.4 °F - 64.4 °F 73% 30.05 in 10.0 mi SSE 5.8 mph - N/A   Clear
10:21 PM 73.4 °F - 64.4 °F 73% 30.05 in 10.0 mi SSE 4.6 mph - N/A   Clear
10:41 PM 71.6 °F - 64.4 °F 78% 30.05 in 10.0 mi SE 4.6 mph - N/A   Clear
11:01 PM 73.4 °F - 64.4 °F 73% 30.05 in 10.0 mi SSE 5.8 mph - N/A   Clear
11:21 PM 71.6 °F - 64.4 °F 78% 30.05 in 10.0 mi SE 5.8 mph - N/A   Clear
11:41 PM 71.6 °F - 64.4 °F 78% 30.05 in 10.0 mi SE 6.9 mph - N/A   Clear